createdAt,value
2022-09-05T00:00:31.395Z,9.26
2022-09-05T00:04:16.867Z,9.26
2022-09-05T00:08:25.076Z,9.26
2022-09-05T00:11:44.267Z,9.28
2022-09-05T00:15:20.192Z,9.26
2022-09-05T00:24:17.362Z,9.26
2022-09-05T00:24:34.274Z,9.30
2022-09-05T00:27:24.669Z,9.29
2022-09-05T00:31:50.546Z,9.27
2022-09-05T00:34:59.807Z,9.23
2022-09-05T00:38:37.293Z,9.16
2022-09-05T00:41:43.368Z,9.12
2022-09-05T00:45:02.694Z,9.12
2022-09-05T00:48:26.160Z,9.12
2022-09-05T00:52:08.687Z,9.14
2022-09-05T00:55:20.959Z,9.15
2022-09-05T00:59:00.576Z,9.10
2022-09-05T01:02:31.245Z,9.05
2022-09-05T01:06:29.198Z,8.98
2022-09-05T01:09:51.289Z,8.94
2022-09-05T01:13:18.532Z,8.92
2022-09-05T01:17:04.773Z,8.93
2022-09-05T01:20:37.614Z,8.93
2022-09-05T01:23:58.246Z,8.92
2022-09-05T01:28:08.383Z,8.88
2022-09-05T01:31:51.100Z,8.83
2022-09-05T01:35:28.286Z,8.78
2022-09-05T01:39:55.163Z,8.75
2022-09-05T01:43:02.514Z,8.74
2022-09-05T01:46:40.325Z,8.73
2022-09-05T01:50:33.053Z,8.73
2022-09-05T01:54:24.366Z,8.72
2022-09-05T01:57:56.276Z,8.69
2022-09-05T02:01:32.911Z,8.66
2022-09-05T02:04:55.339Z,8.63
2022-09-05T02:08:16.271Z,8.63
2022-09-05T02:11:51.528Z,8.63
2022-09-05T02:15:10.310Z,8.63
2022-09-05T02:18:27.499Z,8.59
2022-09-05T02:21:57.128Z,8.55
2022-09-05T02:26:02.071Z,8.51
2022-09-05T02:29:07.612Z,8.47
2022-09-05T02:32:39.254Z,8.46
2022-09-05T02:36:10.604Z,8.46
2022-09-05T02:45:09.200Z,8.47
2022-09-05T02:45:10.846Z,8.47
2022-09-05T02:47:38.378Z,8.45
2022-09-05T02:57:38.174Z,8.37
2022-09-05T02:57:46.439Z,8.42
2022-09-05T02:59:07.968Z,8.35
2022-09-05T03:02:44.422Z,8.36
2022-09-05T03:06:00.121Z,8.37
2022-09-05T03:09:18.210Z,8.38
2022-09-05T03:13:01.711Z,8.39
2022-09-05T03:16:32.053Z,8.39
2022-09-05T03:20:09.724Z,8.39
2022-09-05T03:23:37.319Z,8.38
2022-09-05T03:27:39.673Z,8.37
2022-09-05T03:31:06.623Z,8.33
2022-09-05T03:35:08.838Z,8.32
2022-09-05T03:38:44.664Z,8.31
2022-09-05T03:42:21.123Z,8.31
2022-09-05T03:45:44.877Z,8.31
2022-09-05T03:51:28.170Z,8.29
2022-09-05T03:57:17.488Z,8.27
2022-09-05T04:01:17.582Z,8.27
2022-09-05T04:08:19.348Z,8.27
2022-09-05T04:08:43.360Z,8.29
2022-09-05T04:11:58.259Z,8.29
2022-09-05T04:15:17.888Z,8.31
2022-09-05T04:18:38.092Z,8.33
2022-09-05T04:22:10.635Z,8.33
2022-09-05T04:25:32.411Z,8.32
2022-09-05T04:29:15.277Z,8.33
2022-09-05T04:33:36.280Z,8.37
2022-09-05T04:36:45.500Z,8.44
2022-09-05T04:39:51.099Z,8.48
2022-09-05T04:43:04.649Z,8.54
2022-09-05T04:46:32.306Z,8.60
2022-09-05T04:50:25.287Z,8.67
2022-09-05T04:53:57.331Z,8.74
2022-09-05T04:57:11.787Z,8.78
2022-09-05T05:06:01.511Z,8.83
2022-09-05T05:06:14.076Z,8.88
2022-09-05T05:08:29.108Z,8.95
2022-09-05T05:17:56.858Z,9.09
2022-09-05T05:18:15.154Z,9.20
2022-09-05T05:19:47.353Z,9.41
2022-09-05T05:23:20.346Z,9.63
2022-09-05T05:26:33.254Z,9.82
2022-09-05T05:30:14.287Z,10.01
2022-09-05T05:33:38.594Z,10.21
2022-09-05T05:37:01.399Z,10.28
2022-09-05T05:40:31.763Z,10.27
2022-09-05T05:43:48.458Z,10.33
2022-09-05T05:47:04.246Z,10.43
2022-09-05T05:50:42.152Z,10.55
2022-09-05T05:54:17.611Z,10.69
2022-09-05T05:57:34.339Z,10.78
2022-09-05T06:00:55.097Z,10.85
2022-09-05T06:04:52.407Z,10.91
2022-09-05T06:11:54.377Z,10.97
2022-09-05T06:14:57.753Z,11.05
2022-09-05T06:16:51.703Z,11.17
2022-09-05T06:22:06.615Z,11.24
2022-09-05T06:24:30.153Z,11.30
2022-09-05T06:28:26.164Z,11.37
2022-09-05T06:31:47.033Z,11.44
2022-09-05T06:35:11.048Z,11.49
2022-09-05T06:39:04.324Z,11.56
2022-09-05T06:42:44.373Z,11.65
2022-09-05T06:46:04.823Z,11.78
2022-09-05T06:49:46.270Z,11.89
2022-09-05T06:53:57.148Z,12.05
2022-09-05T06:57:23.539Z,12.29
2022-09-05T07:00:55.911Z,12.51
2022-09-05T07:05:37.943Z,12.67
2022-09-05T07:08:36.593Z,12.80
2022-09-05T07:12:07.464Z,12.94
2022-09-05T07:15:41.203Z,13.05
2022-09-05T07:19:04.559Z,13.19
2022-09-05T07:22:48.410Z,13.37
2022-09-05T07:25:57.118Z,13.54
2022-09-05T07:29:06.681Z,13.66
2022-09-05T07:32:23.769Z,13.68
2022-09-05T07:35:41.794Z,13.74
2022-09-05T07:39:12.263Z,13.84
2022-09-05T07:42:37.011Z,14.04
2022-09-05T07:46:17.413Z,14.29
2022-09-05T07:49:28.347Z,14.63
2022-09-05T07:56:55.403Z,15.05
2022-09-05T07:57:00.665Z,16.66
2022-09-05T07:59:40.761Z,17.53
2022-09-05T08:02:51.441Z,18.61
2022-09-05T08:06:06.423Z,19.70
2022-09-05T08:10:06.857Z,19.39
2022-09-05T08:13:24.217Z,18.85
2022-09-05T08:16:29.409Z,18.33
2022-09-05T08:20:05.518Z,17.80
2022-09-05T08:23:57.905Z,17.48
2022-09-05T08:27:44.427Z,17.23
2022-09-05T08:31:06.956Z,17.05
2022-09-05T08:34:44.156Z,16.96
2022-09-05T08:37:52.351Z,16.96
2022-09-05T08:41:51.518Z,17.08
2022-09-05T08:46:39.568Z,17.20
2022-09-05T08:49:45.490Z,18.82
2022-09-05T08:53:28.355Z,21.90
2022-09-05T08:57:19.312Z,23.24
2022-09-05T09:00:27.656Z,24.22
2022-09-05T09:04:17.251Z,24.50
2022-09-05T09:07:52.633Z,24.30
2022-09-05T09:11:13.272Z,24.50
2022-09-05T09:14:49.356Z,24.04
2022-09-05T09:17:56.231Z,23.27
2022-09-05T09:21:38.126Z,22.95
2022-09-05T09:25:14.236Z,23.09
2022-09-05T09:28:55.566Z,22.78
2022-09-05T09:32:26.826Z,22.78
2022-09-05T09:35:41.299Z,23.21
2022-09-05T09:39:37.493Z,24.46
2022-09-05T09:42:57.787Z,25.41
2022-09-05T09:46:58.803Z,24.76
2022-09-05T09:50:58.568Z,26.34
2022-09-05T09:54:53.991Z,27.31
2022-09-05T09:58:41.944Z,26.13
2022-09-05T10:03:37.670Z,25.04
2022-09-05T10:10:58.712Z,23.81
2022-09-05T10:11:40.169Z,22.88
2022-09-05T10:14:54.967Z,22.07
2022-09-05T10:18:24.331Z,21.51
2022-09-05T10:22:34.154Z,21.33
2022-09-05T10:25:42.579Z,21.50
2022-09-05T10:28:50.834Z,21.22
2022-09-05T10:35:08.137Z,21.50
2022-09-05T10:36:25.521Z,22.53
2022-09-05T10:39:44.613Z,22.73
2022-09-05T10:43:14.288Z,22.78
2022-09-05T10:47:01.055Z,22.87
2022-09-05T10:50:32.587Z,23.08
2022-09-05T10:54:05.531Z,23.45
2022-09-05T10:57:43.719Z,23.73
2022-09-05T11:02:24.867Z,24.44
2022-09-05T11:05:24.089Z,25.28
2022-09-05T11:09:06.435Z,25.40
2022-09-05T11:12:32.426Z,26.17
2022-09-05T11:16:04.570Z,26.66
2022-09-05T11:19:52.871Z,26.68
2022-09-05T11:23:08.969Z,26.47
2022-09-05T11:26:44.217Z,26.18
2022-09-05T11:30:02.696Z,25.94
2022-09-05T11:39:46.310Z,25.78
2022-09-05T11:40:10.856Z,25.39
2022-09-05T11:41:49.114Z,26.14
2022-09-05T11:45:27.085Z,27.33
2022-09-05T11:48:53.550Z,27.75
2022-09-05T11:52:16.903Z,27.70
2022-09-05T11:55:55.250Z,27.29
2022-09-05T11:59:37.711Z,26.67
2022-09-05T12:03:41.528Z,26.18
2022-09-05T12:11:13.093Z,25.04
2022-09-05T12:15:11.544Z,24.60
2022-09-05T12:18:45.847Z,24.31
2022-09-05T12:22:09.153Z,24.14
2022-09-05T12:29:52.196Z,23.74
2022-09-05T12:36:02.540Z,23.37
2022-09-05T12:40:19.782Z,23.01
2022-09-05T12:41:37.925Z,22.68
2022-09-05T12:41:40.968Z,25.73
2022-09-05T12:42:10.926Z,24.07
2022-09-05T12:44:38.151Z,22.38
2022-09-05T12:47:30.771Z,22.04
2022-09-05T12:50:46.931Z,21.90
2022-09-05T12:54:29.865Z,21.89
2022-09-05T13:02:02.834Z,21.73
2022-09-05T13:03:02.513Z,21.54
2022-09-05T13:05:02.134Z,21.42
2022-09-05T13:08:12.619Z,21.34
2022-09-05T13:15:00.718Z,21.24
2022-09-05T13:15:23.152Z,21.08
2022-09-05T13:18:43.144Z,20.85
2022-09-05T13:21:52.843Z,20.73
2022-09-05T13:25:23.927Z,20.66
2022-09-05T13:28:51.310Z,20.55
2022-09-05T13:37:56.039Z,20.44
2022-09-05T13:38:15.761Z,20.32
2022-09-05T13:39:59.811Z,20.22
2022-09-05T13:43:16.492Z,20.05
2022-09-05T13:46:47.732Z,19.92
2022-09-05T13:50:13.787Z,19.71
2022-09-05T13:53:51.515Z,19.48
2022-09-05T13:57:31.970Z,19.27
2022-09-05T14:01:01.322Z,19.23
2022-09-05T14:05:16.248Z,19.21
2022-09-05T14:12:33.725Z,19.10
2022-09-05T14:16:08.444Z,18.95
2022-09-05T14:19:43.197Z,18.80
2022-09-05T14:23:07.346Z,18.64
2022-09-05T14:26:22.230Z,18.56
2022-09-05T14:29:42.823Z,18.48
2022-09-05T14:37:46.541Z,18.41
2022-09-05T14:37:51.307Z,18.30
2022-09-05T14:41:28.481Z,18.04
2022-09-05T14:44:59.184Z,17.88
2022-09-05T14:48:14.343Z,17.89
2022-09-05T14:51:05.231Z,17.89
2022-09-05T14:54:04.447Z,17.73
2022-09-05T14:57:41.358Z,17.57
2022-09-05T15:02:46.362Z,17.53
2022-09-05T15:07:13.860Z,17.36
2022-09-05T15:12:18.800Z,17.23
2022-09-05T15:13:26.099Z,17.05
2022-09-05T15:16:15.690Z,16.93
2022-09-05T15:19:07.281Z,16.88
2022-09-05T15:21:55.231Z,16.84
2022-09-05T15:24:42.985Z,16.79
2022-09-05T15:27:31.372Z,16.75
2022-09-05T15:30:39.512Z,16.67
2022-09-05T15:33:31.184Z,16.51
2022-09-05T15:36:35.901Z,16.44
2022-09-05T15:39:32.266Z,16.34
2022-09-05T15:42:23.798Z,16.18
2022-09-05T15:45:18.471Z,16.03
2022-09-05T15:48:18.336Z,15.87
2022-09-05T15:51:28.211Z,15.78
2022-09-05T15:54:38.479Z,15.67
2022-09-05T15:57:35.729Z,15.58
2022-09-05T16:00:33.207Z,15.50
2022-09-05T16:07:29.406Z,15.46
2022-09-05T16:10:29.524Z,15.41
2022-09-05T16:10:45.655Z,15.35
2022-09-05T16:13:18.996Z,15.27
2022-09-05T16:23:14.353Z,15.08
2022-09-05T16:23:18.536Z,15.17
2022-09-05T16:23:47.919Z,14.99
2022-09-05T16:26:34.444Z,14.88
2022-09-05T16:29:32.778Z,14.79
2022-09-05T16:32:31.012Z,14.70
2022-09-05T16:35:26.273Z,14.60
2022-09-05T16:38:48.641Z,14.49
2022-09-05T16:42:12.347Z,14.37
2022-09-05T16:45:57.929Z,14.23
2022-09-05T16:49:43.020Z,14.09
2022-09-05T16:53:03.076Z,13.94
2022-09-05T16:56:27.931Z,13.79
2022-09-05T16:59:24.792Z,13.67
2022-09-05T17:03:06.655Z,13.54
2022-09-05T17:06:13.502Z,13.40
2022-09-05T17:09:29.491Z,13.27
2022-09-05T17:12:25.805Z,13.16
2022-09-05T17:15:26.493Z,13.06
2022-09-05T17:18:24.192Z,12.95
2022-09-05T17:21:29.953Z,12.83
2022-09-05T17:29:15.993Z,12.71
2022-09-05T17:29:30.534Z,12.58
2022-09-05T17:34:16.329Z,12.35
2022-09-05T17:37:12.667Z,12.25
2022-09-05T17:41:07.412Z,12.16
2022-09-05T17:44:18.531Z,12.03
2022-09-05T17:47:20.496Z,11.91
2022-09-05T17:50:28.228Z,11.82
2022-09-05T17:53:25.705Z,11.73
2022-09-05T17:56:38.191Z,11.64
2022-09-05T17:59:28.509Z,11.56
2022-09-05T18:02:20.059Z,11.51
2022-09-05T18:05:48.436Z,11.47
2022-09-05T18:08:45.737Z,11.42
2022-09-05T18:11:44.634Z,11.38
2022-09-05T18:14:35.133Z,11.31
2022-09-05T18:17:49.563Z,11.25
2022-09-05T18:20:55.834Z,11.19
2022-09-05T18:24:13.023Z,11.10
2022-09-05T18:27:43.777Z,11.05
2022-09-05T18:33:55.281Z,10.96
2022-09-05T18:36:35.554Z,10.98
2022-09-05T18:39:24.480Z,11.00
2022-09-05T18:42:33.002Z,11.04
2022-09-05T18:45:33.506Z,11.08
2022-09-05T18:48:32.884Z,11.12
2022-09-05T18:51:35.297Z,11.16
2022-09-05T18:54:26.774Z,11.18
2022-09-05T18:57:29.318Z,11.21
2022-09-05T19:00:44.483Z,11.22
2022-09-05T19:03:36.553Z,11.24
2022-09-05T19:06:34.602Z,11.23
2022-09-05T19:09:32.118Z,11.19
2022-09-05T19:12:33.322Z,11.17
2022-09-05T19:15:31.066Z,11.14
2022-09-05T19:18:27.337Z,11.10
2022-09-05T19:21:20.529Z,11.05
2022-09-05T19:24:13.144Z,10.99
2022-09-05T19:28:26.319Z,10.94
2022-09-05T19:37:03.122Z,10.86
2022-09-05T19:37:09.437Z,10.79
2022-09-05T19:37:29.437Z,10.73
2022-09-05T19:47:26.277Z,10.68
2022-09-05T19:47:43.864Z,10.64
2022-09-05T19:47:49.755Z,10.60
2022-09-05T19:50:09.811Z,10.54
2022-09-05T19:53:07.567Z,10.47
2022-09-05T19:55:55.716Z,10.38
2022-09-05T19:58:43.989Z,10.27
2022-09-05T20:01:33.026Z,10.17
2022-09-05T20:04:22.102Z,10.08
2022-09-05T20:07:17.514Z,10.00
2022-09-05T20:10:06.130Z,9.92
2022-09-05T20:12:55.261Z,9.87
2022-09-05T20:15:45.243Z,9.83
2022-09-05T20:18:44.743Z,9.79
2022-09-05T20:21:37.500Z,9.75
2022-09-05T20:24:28.016Z,9.71
2022-09-05T20:27:17.445Z,9.67
2022-09-05T20:30:20.929Z,9.63
2022-09-05T20:33:23.842Z,9.58
2022-09-05T20:43:10.320Z,9.52
2022-09-05T20:43:17.265Z,9.48
2022-09-05T20:43:21.005Z,9.44
2022-09-05T20:49:30.137Z,9.41
2022-09-05T20:54:15.345Z,9.38
2022-09-05T20:54:25.608Z,9.34
2022-09-05T20:56:07.849Z,9.26
2022-09-05T20:58:58.812Z,9.21
2022-09-05T21:02:01.155Z,9.16
2022-09-05T21:05:20.318Z,9.12
2022-09-05T21:08:36.773Z,9.09
2022-09-05T21:11:34.572Z,9.06
2022-09-05T21:14:26.907Z,9.05
2022-09-05T21:17:22.652Z,9.03
2022-09-05T21:20:16.241Z,9.00
2022-09-05T21:23:21.360Z,8.96
2022-09-05T21:26:24.527Z,8.92
2022-09-05T21:29:12.404Z,8.86
2022-09-05T21:32:01.858Z,8.82
2022-09-05T21:34:53.803Z,8.79
2022-09-05T21:37:42.226Z,8.76
2022-09-05T21:40:30.339Z,8.75
2022-09-05T21:47:15.795Z,8.74
2022-09-05T21:47:42.804Z,8.71
2022-09-05T21:49:36.903Z,8.67
2022-09-05T21:52:27.232Z,8.62
2022-09-05T21:59:19.731Z,8.57
2022-09-05T21:59:27.093Z,8.54
2022-09-05T22:01:52.447Z,8.51
2022-09-05T22:04:41.994Z,8.49
2022-09-05T22:07:35.965Z,8.47
2022-09-05T22:10:51.344Z,8.44
2022-09-05T22:13:32.630Z,8.41
2022-09-05T22:16:22.838Z,8.39
2022-09-05T22:19:11.795Z,8.38
2022-09-05T22:22:05.598Z,8.38
2022-09-05T22:25:04.735Z,8.39
2022-09-05T22:27:57.570Z,8.39
2022-09-05T22:30:45.976Z,8.36
2022-09-05T22:33:35.490Z,8.32
2022-09-05T22:36:25.619Z,8.29
2022-09-05T22:39:13.896Z,8.25
2022-09-05T22:42:13.871Z,8.21
2022-09-05T22:45:02.014Z,8.19
2022-09-05T22:47:49.695Z,8.18
2022-09-05T22:50:38.372Z,8.18
2022-09-05T22:53:26.546Z,8.20
2022-09-05T22:56:30.969Z,8.22
2022-09-05T22:59:19.163Z,8.22
2022-09-05T23:02:07.122Z,8.19
2022-09-05T23:04:55.270Z,8.15
2022-09-05T23:07:43.302Z,8.12
2022-09-05T23:10:32.177Z,8.10
2022-09-05T23:13:19.922Z,8.09
2022-09-05T23:16:08.931Z,8.08
2022-09-05T23:18:56.823Z,8.09
2022-09-05T23:21:44.768Z,8.11
2022-09-05T23:24:32.926Z,8.15
2022-09-05T23:27:20.799Z,8.20
2022-09-05T23:30:09.806Z,8.28
2022-09-05T23:32:57.621Z,8.30
2022-09-05T23:35:45.723Z,8.32
2022-09-05T23:38:34.634Z,8.33
2022-09-05T23:41:22.792Z,8.34
2022-09-05T23:44:10.703Z,8.37
2022-09-05T23:46:58.852Z,8.39
2022-09-05T23:49:46.749Z,8.41
2022-09-05T23:52:40.243Z,8.44
2022-09-05T23:55:29.414Z,8.45
2022-09-05T23:58:17.539Z,8.45
